Time;durP1;ratioP1;P1;durP2;ratioP2;P2;SDS_P1;SDS_P2;PMS_P1;PMS_P2;Temp;Humidity;BMP_temperature;BMP_pressure;BME280_temperature;BME280_humidity;BME280_pressure;Samples;Min_cycle;Max_cycle;Signal;HPM_P1;HPM_P2
2022/03/22 00:02:09;;;;;;;20.67;9.88;;;;;;;3.89;100.00;102067.44;4968467;28;20035;-51
2022/03/22 00:04:34;;;;;;;25.88;10.75;;;;;;;3.87;100.00;102060.63;4952402;28;20046;-51
2022/03/22 00:07:00;;;;;;;21.80;9.00;;;;;;;3.86;100.00;102066.81;4950045;28;20043;-50
2022/03/22 00:09:25;;;;;;;27.80;9.63;;;;;;;3.84;100.00;102068.72;4951546;28;20502;-50
2022/03/22 00:11:50;;;;;;;20.00;10.52;;;;;;;3.81;100.00;102064.53;4951254;28;20450;-51
2022/03/22 00:14:17;;;;;;;21.77;9.93;;;;;;;3.81;100.00;102068.94;4948863;28;20075;-55
2022/03/22 00:16:43;;;;;;;20.05;9.05;;;;;;;3.79;100.00;102074.28;4948927;28;20050;-58
2022/03/22 00:19:08;;;;;;;25.98;9.93;;;;;;;3.78;100.00;102069.16;4950410;28;20393;-55
2022/03/22 00:21:35;;;;;;;19.08;8.85;;;;;;;3.70;100.00;102067.91;4949742;28;20035;-55
2022/03/22 00:24:01;;;;;;;18.08;9.70;;;;;;;3.68;100.00;102071.59;4950700;28;20062;-51
2022/03/22 00:26:27;;;;;;;21.65;10.80;;;;;;;3.69;100.00;102076.72;4954905;28;20038;-54
2022/03/22 00:28:53;;;;;;;19.60;11.02;;;;;;;3.68;100.00;102064.53;4951415;28;20094;-59
2022/03/22 00:31:19;;;;;;;21.23;9.57;;;;;;;3.71;100.00;102072.19;4951725;28;20031;-53
2022/03/22 00:33:44;;;;;;;21.08;9.25;;;;;;;3.76;100.00;102076.28;4949468;28;20489;-55
2022/03/22 00:36:10;;;;;;;20.40;8.88;;;;;;;3.81;100.00;102068.94;4953944;28;20109;-56
2022/03/22 00:38:36;;;;;;;20.92;9.88;;;;;;;3.92;100.00;102080.38;4953824;28;20083;-54
2022/03/22 00:41:02;;;;;;;19.00;9.88;;;;;;;4.01;100.00;102075.41;4959267;28;20055;-53
2022/03/22 00:43:27;;;;;;;30.70;10.65;;;;;;;4.11;100.00;102072.00;4951718;28;20031;-53
2022/03/22 00:45:54;;;;;;;18.35;9.38;;;;;;;4.23;100.00;102077.31;4955753;28;20042;-53
2022/03/22 00:48:19;;;;;;;25.75;11.77;;;;;;;4.36;100.00;102070.22;4955890;28;20567;-55
2022/03/22 00:50:51;;;;;;;24.42;10.23;;;;;;;4.48;100.00;102063.25;4961535;28;20039;-56
2022/03/22 00:53:18;;;;;;;16.83;8.85;;;;;;;4.59;100.00;102071.16;4952485;28;20038;-57
2022/03/22 00:55:44;;;;;;;27.25;11.65;;;;;;;4.65;100.00;102064.66;4954420;28;20445;-54
2022/03/22 00:58:09;;;;;;;24.48;10.70;;;;;;;4.73;100.00;102065.75;4953459;28;20034;-57
2022/03/22 01:00:37;;;;;;;21.80;11.90;;;;;;;4.79;100.00;102067.06;4956633;28;20366;-54
2022/03/22 01:03:04;;;;;;;18.73;9.93;;;;;;;4.82;100.00;102067.66;4959855;28;20122;-55
2022/03/22 01:05:30;;;;;;;25.42;11.43;;;;;;;4.82;100.00;102072.09;4953485;28;20034;-56
2022/03/22 01:08:02;;;;;;;28.90;13.88;;;;;;;4.85;100.00;102057.88;4955231;28;20053;-56
2022/03/22 01:10:30;;;;;;;24.73;11.68;;;;;;;4.83;100.00;102068.53;4952424;28;20047;-57
2022/03/22 01:12:55;;;;;;;33.17;12.00;;;;;;;4.83;100.00;102065.91;4949914;28;20045;-57
2022/03/22 01:15:23;;;;;;;27.50;13.15;;;;;;;4.91;100.00;102060.91;4955640;28;20023;-58
2022/03/22 01:17:51;;;;;;;25.30;13.15;;;;;;;4.98;100.00;102063.88;4955751;28;20520;-56
2022/03/22 01:20:20;;;;;;;29.63;13.68;;;;;;;5.02;100.00;102062.72;4950956;28;20031;-56
2022/03/22 01:22:47;;;;;;;21.85;10.70;;;;;;;5.01;100.00;102056.63;4948371;28;20038;-53
2022/03/22 01:25:16;;;;;;;32.33;15.27;;;;;;;5.02;100.00;102053.03;4953426;28;20936;-55
2022/03/22 01:27:43;;;;;;;36.75;13.88;;;;;;;4.98;100.00;102064.75;4956773;28;20058;-56
2022/03/22 01:30:12;;;;;;;22.48;12.52;;;;;;;5.08;100.00;102056.16;4951860;28;20039;-54
2022/03/22 01:32:38;;;;;;;31.27;14.10;;;;;;;5.17;100.00;102058.94;4955861;28;20027;-56
2022/03/22 01:35:05;;;;;;;31.63;17.35;;;;;;;5.23;100.00;102055.81;4951251;28;20034;-57
2022/03/22 01:37:31;;;;;;;30.38;14.18;;;;;;;5.33;100.00;102060.38;4956595;28;20037;-56
2022/03/22 01:39:57;;;;;;;33.08;13.45;;;;;;;5.38;100.00;102053.81;4950223;28;20055;-54
2022/03/22 01:42:22;;;;;;;31.60;15.27;;;;;;;5.49;100.00;102050.34;4949632;28;20481;-57
2022/03/22 01:44:49;;;;;;;32.83;13.40;;;;;;;5.53;100.00;102053.59;4956180;28;20039;-51
2022/03/22 01:47:17;;;;;;;27.00;14.07;;;;;;;5.59;100.00;102040.78;4956276;28;20109;-56
2022/03/22 01:49:43;;;;;;;36.00;17.25;;;;;;;5.71;100.00;102052.16;4952475;28;20035;-54
2022/03/22 01:52:13;;;;;;;39.53;16.40;;;;;;;5.75;100.00;102042.19;4950227;28;20031;-54
2022/03/22 01:54:39;;;;;;;34.60;16.27;;;;;;;5.81;100.00;102047.84;4949964;28;20101;-56
2022/03/22 01:57:06;;;;;;;33.80;17.73;;;;;;;5.86;100.00;102043.03;4955069;28;20520;-57
2022/03/22 01:59:32;;;;;;;31.10;15.65;;;;;;;5.88;100.00;102035.00;4953633;28;20375;-56
2022/03/22 02:07:33;;;;;;;32.63;16.83;;;;;;;5.97;100.00;102031.69;4952409;28;20116;-57
2022/03/22 02:09:58;;;;;;;32.03;18.45;;;;;;;5.99;100.00;102023.63;4954054;28;20500;-51
2022/03/22 02:12:24;;;;;;;37.08;16.83;;;;;;;5.95;100.00;102025.69;4949688;28;20038;-52
2022/03/22 02:14:49;;;;;;;28.27;14.85;;;;;;;5.91;100.00;102024.22;4954092;28;20249;-52
2022/03/22 02:17:15;;;;;;;31.45;15.32;;;;;;;5.83;100.00;102018.72;4956945;28;20030;-55
2022/03/22 02:19:40;;;;;;;30.15;16.58;;;;;;;5.71;100.00;102012.66;4952822;28;20043;-53
2022/03/22 02:22:11;;;;;;;32.30;16.60;;;;;;;5.61;100.00;102017.81;4956665;28;20575;-53
2022/03/22 02:24:37;;;;;;;37.70;15.90;;;;;;;5.54;100.00;102015.78;4955100;28;20038;-52
2022/03/22 02:27:03;;;;;;;37.33;18.65;;;;;;;5.46;100.00;102014.59;4955138;28;20381;-50
2022/03/22 02:29:28;;;;;;;33.30;16.05;;;;;;;5.39;100.00;102020.44;4954863;28;20045;-51
2022/03/22 02:31:54;;;;;;;40.97;17.10;;;;;;;5.31;100.00;102015.78;4948598;28;20047;-50
2022/03/22 02:34:19;;;;;;;28.63;14.80;;;;;;;5.23;100.00;102010.28;4949921;28;20076;-55
2022/03/22 02:36:45;;;;;;;37.90;17.58;;;;;;;5.15;100.00;102016.13;4954566;28;20027;-52
2022/03/22 02:39:11;;;;;;;29.88;14.35;;;;;;;5.03;100.00;102012.66;4954567;28;20036;-51
2022/03/22 02:41:37;;;;;;;32.88;15.50;;;;;;;4.93;100.00;102016.09;4952554;28;20034;-52
2022/03/22 02:44:03;;;;;;;36.72;17.83;;;;;;;4.77;100.00;102022.50;4956966;28;20081;-52
2022/03/22 02:46:28;;;;;;;34.35;16.65;;;;;;;4.69;100.00;102024.03;4958100;28;20050;-54
2022/03/22 02:48:54;;;;;;;37.53;18.27;;;;;;;4.62;100.00;102025.44;4958377;28;20030;-56
2022/03/22 02:51:20;;;;;;;41.55;18.00;;;;;;;4.58;100.00;102019.59;4948866;28;20085;-53
2022/03/22 02:53:45;;;;;;;32.13;17.40;;;;;;;4.50;100.00;102016.69;4951838;28;20082;-56
2022/03/22 02:56:10;;;;;;;36.80;18.23;;;;;;;4.38;100.00;102007.94;4956915;28;20126;-56
2022/03/22 02:58:36;;;;;;;38.03;20.90;;;;;;;4.26;100.00;102016.69;4951123;28;20039;-53
2022/03/22 03:01:02;;;;;;;32.67;19.20;;;;;;;4.10;100.00;102016.97;4948565;28;20035;-55
2022/03/22 03:03:28;;;;;;;34.00;18.42;;;;;;;4.04;100.00;102025.31;4951948;28;20130;-55
2022/03/22 03:05:53;;;;;;;42.50;17.83;;;;;;;3.98;100.00;102023.13;4953592;28;20077;-54
2022/03/22 03:08:19;;;;;;;37.95;18.77;;;;;;;3.96;100.00;102025.88;4949676;28;20575;-55
2022/03/22 03:10:46;;;;;;;31.35;13.75;;;;;;;3.93;100.00;102026.09;4947134;28;20035;-51
2022/03/22 03:13:12;;;;;;;41.05;17.48;;;;;;;3.83;100.00;102022.44;4949133;28;20090;-55
2022/03/22 03:15:37;;;;;;;31.02;15.13;;;;;;;3.71;100.00;102032.84;4958345;28;20519;-56
2022/03/22 03:18:03;;;;;;;30.88;15.55;;;;;;;3.60;100.00;102027.53;4949796;28;20047;-56
2022/03/22 03:20:28;;;;;;;40.53;17.73;;;;;;;3.56;100.00;102028.66;4947062;28;20297;-55
2022/03/22 03:22:54;;;;;;;33.95;15.10;;;;;;;3.53;100.00;102033.31;4956365;28;20031;-53
2022/03/22 03:25:19;;;;;;;46.90;18.60;;;;;;;3.48;100.00;102031.00;4967099;28;20038;-57
2022/03/22 03:27:45;;;;;;;31.48;16.92;;;;;;;3.39;100.00;102029.03;4950508;28;20054;-56
2022/03/22 03:30:10;;;;;;;40.85;19.30;;;;;;;3.34;100.00;102028.50;4959348;28;20031;-53
2022/03/22 03:32:36;;;;;;;40.67;17.20;;;;;;;3.25;100.00;102029.97;4956525;28;20062;-56
2022/03/22 03:35:03;;;;;;;33.10;15.68;;;;;;;3.25;100.00;102030.81;4955775;28;20121;-54
2022/03/22 03:37:30;;;;;;;34.15;15.50;;;;;;;3.21;100.00;102039.00;4959342;28;20162;-57
2022/03/22 03:39:55;;;;;;;40.25;16.02;;;;;;;3.10;100.00;102033.63;4951380;28;20114;-56
2022/03/22 03:42:21;;;;;;;33.40;17.42;;;;;;;3.02;100.00;102037.63;4951586;28;20114;-55
2022/03/22 03:47:30;;;;;;;41.08;18.33;;;;;;;2.95;100.00;102043.38;4957467;28;20109;-51
2022/03/22 03:49:58;;;;;;;39.55;17.30;;;;;;;2.88;100.00;102037.72;4950646;28;20469;-55
2022/03/22 03:52:26;;;;;;;35.08;14.85;;;;;;;2.83;100.00;102043.25;4950475;28;20070;-53
2022/03/22 03:54:53;;;;;;;30.17;13.23;;;;;;;2.78;100.00;102036.66;4955787;28;20046;-57
2022/03/22 03:57:19;;;;;;;35.25;16.60;;;;;;;2.73;100.00;102036.94;4961277;28;20449;-54
2022/03/22 03:59:45;;;;;;;36.65;16.30;;;;;;;2.66;100.00;102033.06;4982644;28;20056;-52
2022/03/22 04:02:11;;;;;;;43.03;18.42;;;;;;;2.63;100.00;102041.09;4971796;28;20118;-56
2022/03/22 04:04:38;;;;;;;35.45;16.35;;;;;;;2.61;100.00;102040.41;4956321;28;20114;-57
2022/03/22 04:07:05;;;;;;;34.55;15.77;;;;;;;2.57;100.00;102041.53;4963643;28;20627;-54
2022/03/22 04:09:31;;;;;;;37.63;16.65;;;;;;;2.54;100.00;102041.72;4956184;28;20073;-57
2022/03/22 04:11:57;;;;;;;37.08;15.25;;;;;;;2.49;100.00;102034.16;4958053;28;20492;-56
2022/03/22 04:14:23;;;;;;;42.20;17.50;;;;;;;2.43;100.00;102034.59;4956239;28;20042;-54
2022/03/22 04:16:52;;;;;;;39.38;16.70;;;;;;;2.41;100.00;102033.84;4964189;28;20038;-51
2022/03/22 04:19:17;;;;;;;36.25;17.08;;;;;;;2.39;100.00;102031.31;4953618;28;20043;-54
2022/03/22 04:21:44;;;;;;;34.97;17.85;;;;;;;2.42;100.00;102037.28;4959215;28;20506;-53
2022/03/22 04:24:10;;;;;;;38.25;17.35;;;;;;;2.44;100.00;102044.09;4954478;28;20429;-57
2022/03/22 04:26:38;;;;;;;48.67;20.88;;;;;;;2.46;100.00;102030.94;4952503;28;20155;-54
2022/03/22 04:34:32;;;;;;;35.25;17.60;;;;;;;2.56;100.00;102045.09;4954865;28;20078;-58
2022/03/22 04:37:01;;;;;;;43.90;17.95;;;;;;;2.65;100.00;102044.47;4951379;28;20043;-57
2022/03/22 04:39:29;;;;;;;46.28;18.42;;;;;;;2.73;100.00;102039.56;4963249;28;20385;-54
2022/03/22 04:41:56;;;;;;;40.65;19.10;;;;;;;2.83;100.00;102040.63;4956661;28;20039;-55
2022/03/22 04:44:22;;;;;;;37.47;18.73;;;;;;;2.93;100.00;102037.41;4954290;28;20027;-50
2022/03/22 04:46:48;;;;;;;50.38;21.52;;;;;;;2.99;100.00;102027.34;4951002;28;20036;-55
2022/03/22 04:49:14;;;;;;;43.65;19.50;;;;;;;3.06;100.00;102028.59;4963566;28;20038;-51
2022/03/22 04:57:07;;;;;;;42.97;18.98;;;;;;;3.53;100.00;102036.75;4955532;28;20102;-53
2022/03/22 04:59:33;;;;;;;38.22;19.65;;;;;;;3.63;100.00;102044.84;4948532;28;20772;-52
2022/03/22 05:01:59;;;;;;;47.30;22.77;;;;;;;3.74;100.00;102038.81;4952306;28;20921;-50
2022/03/22 05:04:25;;;;;;;37.25;19.35;;;;;;;3.80;100.00;102041.88;4952691;28;20054;-54
2022/03/22 05:06:50;;;;;;;44.10;19.65;;;;;;;3.87;100.00;102043.13;4967616;28;20114;-52
2022/03/22 05:09:15;;;;;;;49.60;22.48;;;;;;;3.93;100.00;102045.28;4953598;28;20560;-54
2022/03/22 05:11:41;;;;;;;43.95;20.15;;;;;;;4.01;100.00;102044.75;4957701;28;20696;-55
2022/03/22 05:14:08;;;;;;;47.45;21.70;;;;;;;4.04;100.00;102039.25;4951031;28;20035;-52
2022/03/22 05:16:35;;;;;;;42.53;18.90;;;;;;;4.06;100.00;102047.88;4948071;28;20031;-55
2022/03/22 05:19:01;;;;;;;36.33;18.23;;;;;;;4.07;100.00;102046.09;4959389;28;20051;-58
2022/03/22 05:21:26;;;;;;;43.75;21.50;;;;;;;4.07;100.00;102046.09;4951160;28;20042;-58
2022/03/22 05:23:53;;;;;;;42.17;20.75;;;;;;;4.08;100.00;102050.38;4960082;28;20039;-57
2022/03/22 05:26:19;;;;;;;40.70;22.25;;;;;;;4.07;100.00;102046.91;4949578;28;20106;-58
2022/03/22 05:28:44;;;;;;;42.67;20.77;;;;;;;4.08;100.00;102048.63;4959774;28;20453;-57
2022/03/22 05:31:14;;;;;;;47.22;20.85;;;;;;;4.11;100.00;102043.13;4951340;28;20046;-57
2022/03/22 05:33:40;;;;;;;49.42;21.13;;;;;;;4.17;100.00;102043.63;4952074;28;20074;-53
2022/03/22 05:36:06;;;;;;;49.50;23.58;;;;;;;4.21;100.00;102045.06;4952110;28;20476;-57
2022/03/22 05:38:32;;;;;;;42.70;20.95;;;;;;;4.27;100.00;102034.97;4959549;28;20045;-51
2022/03/22 05:40:58;;;;;;;50.78;20.60;;;;;;;4.35;100.00;102047.56;4956775;28;20039;-59
2022/03/22 05:43:26;;;;;;;43.33;19.98;;;;;;;4.40;100.00;102052.47;4954594;28;20073;-57
2022/03/22 05:45:51;;;;;;;45.10;22.40;;;;;;;4.41;100.00;102043.63;4955535;28;20403;-54
2022/03/22 05:48:18;;;;;;;52.40;24.85;;;;;;;4.42;100.00;102048.78;4963519;28;20042;-54
2022/03/22 05:50:43;;;;;;;41.10;20.25;;;;;;;4.43;100.00;102049.63;4949941;28;20090;-57
2022/03/22 05:53:10;;;;;;;43.90;22.27;;;;;;;4.46;100.00;102050.22;4953689;28;20035;-55
2022/03/22 05:55:36;;;;;;;52.15;24.65;;;;;;;4.53;100.00;102046.19;4953545;28;20031;-56
2022/03/22 05:58:01;;;;;;;57.47;25.25;;;;;;;4.57;100.00;102052.09;4955069;28;20035;-54
2022/03/22 06:00:27;;;;;;;53.38;26.23;;;;;;;4.54;100.00;102044.41;4948564;28;20042;-54
2022/03/22 06:02:52;;;;;;;46.28;24.55;;;;;;;4.48;100.00;102043.06;4949917;28;20477;-56
2022/03/22 06:05:18;;;;;;;50.80;23.48;;;;;;;4.46;100.00;102050.22;4951679;28;20042;-57
2022/03/22 06:07:43;;;;;;;52.90;23.70;;;;;;;4.42;100.00;102054.03;4947915;28;20485;-54
2022/03/22 06:10:12;;;;;;;46.58;24.20;;;;;;;4.31;100.00;102046.94;4948382;28;20086;-56
2022/03/22 06:12:42;;;;;;;50.22;24.90;;;;;;;4.21;100.00;102060.84;4949893;28;20043;-57
2022/03/22 06:15:16;;;;;;;45.70;22.23;;;;;;;4.09;100.00;102054.69;4953434;28;20142;-55
2022/03/22 06:17:46;;;;;;;68.47;27.73;;;;;;;4.01;100.00;102052.63;4948963;28;20281;-57
2022/03/22 06:20:13;;;;;;;50.88;23.17;;;;;;;3.97;100.00;102071.31;4948158;28;20381;-56
2022/03/22 06:22:38;;;;;;;46.53;22.13;;;;;;;3.88;100.00;102067.56;4950640;28;20038;-57
2022/03/22 06:25:04;;;;;;;50.63;23.80;;;;;;;3.85;100.00;102066.00;4949265;28;20035;-57
2022/03/22 06:27:29;;;;;;;43.75;21.02;;;;;;;3.79;100.00;102069.03;4946460;28;20050;-55
2022/03/22 06:29:55;;;;;;;47.97;22.95;;;;;;;3.75;100.00;102066.75;4953723;28;20070;-55
2022/03/22 06:32:20;;;;;;;46.55;23.38;;;;;;;3.74;100.00;102073.75;4947722;28;20481;-55
2022/03/22 06:34:47;;;;;;;52.08;22.38;;;;;;;3.65;100.00;102075.25;4944212;28;20031;-56
2022/03/22 06:37:13;;;;;;;49.85;24.17;;;;;;;3.65;100.00;102077.88;4947987;28;20548;-55
2022/03/22 06:39:38;;;;;;;50.70;25.95;;;;;;;3.66;100.00;102078.72;4945953;28;20057;-55
2022/03/22 06:42:04;;;;;;;57.25;25.67;;;;;;;3.69;100.00;102074.13;4947253;28;20296;-56
2022/03/22 06:44:30;;;;;;;53.20;23.98;;;;;;;3.71;100.00;102080.06;4945731;28;20035;-56
2022/03/22 06:46:55;;;;;;;52.45;26.13;;;;;;;3.68;100.00;102064.53;4950449;28;20031;-56
2022/03/22 06:49:22;;;;;;;52.80;24.23;;;;;;;3.70;100.00;102067.06;4950972;28;20141;-54
2022/03/22 06:51:47;;;;;;;62.65;26.52;;;;;;;3.69;100.00;102071.50;4954288;28;20121;-57
2022/03/22 06:54:13;;;;;;;50.28;22.77;;;;;;;3.63;100.00;102071.91;4950210;28;20031;-53
2022/03/22 06:56:39;;;;;;;53.33;26.00;;;;;;;3.63;100.00;102071.06;4960017;28;20051;-57
2022/03/22 06:59:05;;;;;;;61.05;24.77;;;;;;;3.62;100.00;102074.66;4957095;28;20370;-54
2022/03/22 07:01:31;;;;;;;54.00;25.00;;;;;;;3.62;100.00;102075.47;4956975;28;20081;-54
2022/03/22 07:03:57;;;;;;;53.28;26.08;;;;;;;3.68;100.00;102080.28;4967037;28;20022;-54
2022/03/22 07:06:22;;;;;;;55.60;22.95;;;;;;;3.76;100.00;102082.38;4966434;28;20035;-57
2022/03/22 07:08:48;;;;;;;48.50;22.85;;;;;;;3.81;100.00;102079.44;4964033;28;20049;-58
2022/03/22 07:13:57;;;;;;;44.70;22.13;;;;;;;3.93;100.00;102089.91;4957245;28;20038;-51
2022/03/22 07:16:24;;;;;;;60.65;25.10;;;;;;;3.97;100.00;102087.06;4960637;28;20035;-54
2022/03/22 07:18:50;;;;;;;49.28;23.98;;;;;;;4.00;100.00;102084.22;4953383;28;20129;-54
2022/03/22 07:21:15;;;;;;;50.70;23.02;;;;;;;4.04;100.00;102090.94;4958718;28;20034;-55
2022/03/22 07:23:41;;;;;;;54.63;24.60;;;;;;;4.15;100.00;102089.19;4957128;28;20086;-51
2022/03/22 07:26:06;;;;;;;52.28;24.33;;;;;;;4.29;100.00;102088.22;4956009;28;20039;-53
2022/03/22 07:28:32;;;;;;;55.75;25.67;;;;;;;4.43;100.00;102087.22;4953742;28;20035;-52
2022/03/22 07:30:58;;;;;;;56.95;23.83;;;;;;;4.59;100.00;102093.06;4955790;28;20078;-54
2022/03/22 07:33:23;;;;;;;46.90;24.00;;;;;;;4.76;100.00;102096.22;4958548;28;20034;-57
2022/03/22 07:35:49;;;;;;;54.97;25.35;;;;;;;4.98;100.00;102093.66;4962473;28;20034;-56
2022/03/22 07:38:14;;;;;;;59.38;27.65;;;;;;;5.17;100.00;102105.44;4960830;28;20026;-52
2022/03/22 07:40:40;;;;;;;54.22;25.48;;;;;;;5.28;100.00;102101.97;4949136;28;20046;-52
2022/03/22 07:43:05;;;;;;;55.80;25.48;;;;;;;5.37;100.00;102102.13;4952239;28;20480;-50
2022/03/22 07:45:30;;;;;;;55.70;25.35;;;;;;;5.60;100.00;102100.34;4954943;28;20027;-51
2022/03/22 07:47:56;;;;;;;49.50;23.98;;;;;;;5.76;100.00;102092.09;4951697;28;20400;-52
2022/03/22 07:53:05;;;;;;;58.28;25.85;;;;;;;5.97;100.00;102096.66;4954072;28;20551;-58
2022/03/22 07:55:34;;;;;;;61.05;28.15;;;;;;;6.16;100.00;102102.13;4953881;28;20591;-56
2022/03/22 07:58:00;;;;;;;66.00;30.45;;;;;;;6.41;100.00;102095.75;4957037;28;20512;-58
2022/03/22 08:00:26;;;;;;;62.05;30.27;;;;;;;6.65;100.00;102103.44;4953092;28;20160;-58
2022/03/22 08:02:52;;;;;;;64.15;30.88;;;;;;;6.85;100.00;102099.16;4955286;28;20050;-55
2022/03/22 08:05:18;;;;;;;53.45;27.00;;;;;;;7.11;100.00;102099.63;4953766;28;20473;-57
2022/03/22 08:07:43;;;;;;;70.60;30.75;;;;;;;7.44;100.00;102095.09;4952733;28;20046;-57
2022/03/22 08:10:09;;;;;;;54.97;29.58;;;;;;;7.70;100.00;102089.41;4945924;28;20137;-55
2022/03/22 08:12:34;;;;;;;54.40;28.02;;;;;;;7.73;100.00;102089.13;4945521;28;20039;-59
2022/03/22 08:14:59;;;;;;;53.88;28.30;;;;;;;7.88;100.00;102090.44;4947231;28;20986;-59
2022/03/22 08:17:25;;;;;;;48.88;25.20;;;;;;;8.02;100.00;102091.84;4945143;28;20041;-60
2022/03/22 08:19:50;;;;;;;62.45;30.17;;;;;;;8.21;100.00;102085.75;4951442;28;20035;-58
2022/03/22 08:22:15;;;;;;;56.75;27.58;;;;;;;8.45;100.00;102080.97;4947875;28;20126;-53
2022/03/22 08:24:40;;;;;;;52.50;26.17;;;;;;;8.59;100.00;102079.72;4965383;28;20093;-57
2022/03/22 08:27:07;;;;;;;51.15;26.90;;;;;;;8.86;100.00;102081.69;4947487;28;20035;-56
2022/03/22 08:29:34;;;;;;;44.28;23.88;;;;;;;9.08;100.00;102084.97;4944016;28;20097;-58
2022/03/22 08:31:59;;;;;;;45.42;25.08;;;;;;;9.29;100.00;102083.00;4950370;28;20031;-58
2022/03/22 08:34:24;;;;;;;47.20;23.45;;;;;;;9.49;100.00;102081.13;4949817;28;20031;-57
2022/03/22 08:36:50;;;;;;;38.83;21.25;;;;;;;9.66;100.00;102065.47;4955938;28;20039;-58
2022/03/22 08:39:15;;;;;;;42.15;22.30;;;;;;;9.87;100.00;102078.47;4962628;28;20035;-58
2022/03/22 08:41:40;;;;;;;47.60;23.15;;;;;;;10.08;100.00;102072.91;4962448;28;20366;-58
2022/03/22 08:44:06;;;;;;;44.20;23.50;;;;;;;10.27;100.00;102064.81;4951617;28;20035;-55
2022/03/22 08:46:31;;;;;;;43.03;19.15;;;;;;;10.42;100.00;102062.50;4954229;28;20073;-57
2022/03/22 08:48:56;;;;;;;41.15;21.50;;;;;;;10.57;100.00;102060.16;4955140;28;20492;-58
2022/03/22 08:51:25;;;;;;;45.88;21.85;;;;;;;10.81;100.00;102065.66;4956153;28;20475;-56
2022/03/22 08:53:54;;;;;;;38.20;20.02;;;;;;;11.52;100.00;102063.81;4949399;28;20027;-57
2022/03/22 08:56:22;;;;;;;38.60;18.77;;;;;;;11.50;100.00;102060.47;4951350;28;20034;-57
2022/03/22 08:58:52;;;;;;;37.53;21.73;;;;;;;11.42;100.00;102065.75;4956923;28;20054;-57
2022/03/22 09:01:17;;;;;;;46.33;21.90;;;;;;;11.40;100.00;102067.72;4956511;28;20026;-58
2022/03/22 09:03:43;;;;;;;44.70;19.48;;;;;;;11.43;100.00;102070.06;4949239;28;20027;-56
2022/03/22 09:06:08;;;;;;;41.63;19.95;;;;;;;11.54;100.00;102075.94;4961902;28;20027;-60
2022/03/22 09:08:38;;;;;;;40.85;19.55;;;;;;;11.69;100.00;102075.31;4955859;28;20972;-59
2022/03/22 09:11:05;;;;;;;34.57;20.00;;;;;;;11.79;100.00;102060.09;4950683;28;20050;-56
2022/03/22 09:13:30;;;;;;;38.22;20.55;;;;;;;11.87;100.00;102064.63;4952081;28;20031;-56
2022/03/22 09:15:56;;;;;;;36.78;20.40;;;;;;;11.90;100.00;102059.84;4956802;28;20527;-57
2022/03/22 09:18:22;;;;;;;32.75;18.27;;;;;;;12.03;100.00;102072.69;4960963;28;20059;-59
2022/03/22 09:20:48;;;;;;;40.45;19.05;;;;;;;12.10;100.00;102070.19;4950216;28;20082;-57
2022/03/22 09:23:14;;;;;;;41.30;21.02;;;;;;;12.21;100.00;102056.59;4952542;28;20322;-59
2022/03/22 09:25:41;;;;;;;45.30;20.17;;;;;;;12.35;100.00;102060.44;4955861;28;20126;-58
2022/03/22 09:28:07;;;;;;;41.42;20.58;;;;;;;12.50;100.00;102060.63;4958725;28;20035;-59
2022/03/22 09:30:34;;;;;;;35.53;19.23;;;;;;;12.59;100.00;102064.94;4963534;28;20034;-59
2022/03/22 09:33:02;;;;;;;38.03;21.33;;;;;;;12.65;100.00;102069.63;4954395;28;20049;-61
2022/03/22 09:35:28;;;;;;;44.80;21.60;;;;;;;12.78;100.00;102067.28;4959378;28;20066;-59
2022/03/22 09:37:54;;;;;;;41.45;22.75;;;;;;;12.90;100.00;102062.44;4955268;28;20038;-59
2022/03/22 09:40:21;;;;;;;37.97;21.95;;;;;;;13.00;100.00;102065.75;4959109;28;20030;-59
2022/03/22 09:42:47;;;;;;;44.70;22.75;;;;;;;13.14;100.00;102069.59;4952353;28;20499;-54
2022/03/22 09:45:15;;;;;;;39.25;19.60;;;;;;;13.23;100.00;102065.91;4954472;28;20035;-54
2022/03/22 09:47:42;;;;;;;39.40;22.88;;;;;;;13.32;100.00;102058.78;4954651;28;20416;-59
2022/03/22 09:50:09;;;;;;;44.60;19.48;;;;;;;13.50;100.00;102063.84;4947934;28;20390;-61
2022/03/22 09:52:36;;;;;;;32.88;17.70;;;;;;;13.61;100.00;102047.50;4948851;28;20408;-61
2022/03/22 09:55:04;;;;;;;33.90;18.15;;;;;;;13.74;100.00;102050.44;4959511;28;20319;-59
2022/03/22 09:57:29;;;;;;;30.67;17.13;;;;;;;13.94;100.00;102045.50;4954380;28;20031;-59
2022/03/22 09:59:54;;;;;;;33.03;17.15;;;;;;;14.06;100.00;102043.25;4964933;28;20085;-55
2022/03/22 10:02:27;;;;;;;35.22;17.17;;;;;;;14.28;100.00;102035.47;4954273;28;20401;-60
2022/03/22 10:04:53;;;;;;;29.67;16.13;;;;;;;14.39;100.00;102043.06;4952793;28;20035;-58
2022/03/22 10:07:20;;;;;;;29.55;15.82;;;;;;;14.44;100.00;102039.88;4952416;28;20031;-56
2022/03/22 10:10:05;;;;;;;26.42;14.55;;;;;;;14.51;100.00;102035.47;4955210;28;20042;-62
2022/03/22 10:12:32;;;;;;;32.97;16.77;;;;;;;14.65;100.00;102033.88;4951842;28;20083;-61
2022/03/22 10:15:12;;;;;;;27.40;14.60;;;;;;;14.78;100.00;102032.25;4953453;28;20051;-56
2022/03/22 10:17:38;;;;;;;26.42;12.35;;;;;;;14.91;100.00;102026.28;4952930;28;20035;-60
2022/03/22 10:20:07;;;;;;;25.83;14.05;;;;;;;15.04;100.00;102039.00;4954429;28;20046;-61
2022/03/22 10:22:35;;;;;;;25.33;13.95;;;;;;;15.17;100.00;102035.72;4949434;28;20098;-59
2022/03/22 10:25:05;;;;;;;25.80;12.40;;;;;;;15.34;100.00;102037.19;4952213;28;20510;-62
2022/03/22 10:27:35;;;;;;;19.60;10.98;;;;;;;15.51;100.00;102027.13;4951991;28;20030;-59
2022/03/22 10:30:08;;;;;;;28.00;13.60;;;;;;;15.69;100.00;102021.41;4955177;28;20046;-63
2022/03/22 10:32:37;;;;;;;29.40;13.55;;;;;;;15.81;100.00;102027.13;4950982;28;20039;-60
2022/03/22 10:35:12;;;;;;;22.20;12.55;;;;;;;15.86;100.00;102025.53;4951364;28;20117;-61
2022/03/22 10:37:41;;;;;;;23.25;11.50;;;;;;;15.97;100.00;102031.41;4962770;28;20138;-60
2022/03/22 10:40:34;;;;;;;20.02;10.65;;;;;;;16.10;100.00;102027.03;4959660;28;20397;-60
2022/03/22 10:43:05;;;;;;;18.23;9.43;;;;;;;16.25;100.00;102016.28;4962344;28;20042;-62
2022/03/22 10:45:47;;;;;;;17.30;10.98;;;;;;;16.34;100.00;102028.53;4952543;28;20368;-62
2022/03/22 10:48:26;;;;;;;16.73;10.60;;;;;;;16.44;100.00;102017.47;4962788;28;20043;-62
2022/03/22 10:50:54;;;;;;;16.92;10.23;;;;;;;16.60;100.00;102011.03;4954027;28;20038;-57
2022/03/22 10:53:21;;;;;;;17.35;10.23;;;;;;;16.67;100.00;102016.44;4950033;28;20027;-58
2022/03/22 10:55:48;;;;;;;17.17;9.95;;;;;;;16.68;100.00;102015.41;4951052;28;20055;-63
2022/03/22 10:58:15;;;;;;;19.17;11.63;;;;;;;16.93;100.00;102021.19;4955642;28;20365;-60
2022/03/22 11:00:46;;;;;;;20.88;10.93;;;;;;;17.00;100.00;102012.16;4949969;28;20038;-60
2022/03/22 11:03:13;;;;;;;16.35;9.30;;;;;;;17.02;100.00;102016.50;4950919;28;20031;-62
2022/03/22 11:05:46;;;;;;;15.70;9.40;;;;;;;17.16;100.00;102002.97;4955397;28;20042;-62
2022/03/22 11:08:11;;;;;;;17.48;9.80;;;;;;;17.30;100.00;102011.13;4956301;28;20130;-54
2022/03/22 11:10:37;;;;;;;13.50;7.80;;;;;;;17.37;100.00;102012.81;4952175;28;20127;-60
2022/03/22 11:13:03;;;;;;;16.92;8.93;;;;;;;17.41;100.00;102007.84;4951192;28;20038;-58
2022/03/22 11:15:36;;;;;;;15.15;9.93;;;;;;;17.46;100.00;101999.22;4962413;28;20038;-55
2022/03/22 11:18:03;;;;;;;15.10;8.73;;;;;;;17.60;100.00;102007.09;4951616;28;20439;-62
2022/03/22 11:20:29;;;;;;;14.75;8.82;;;;;;;17.75;100.00;101998.09;4951978;28;20035;-61
2022/03/22 11:22:57;;;;;;;10.27;6.75;;;;;;;17.77;100.00;102001.41;4948401;28;20454;-63
2022/03/22 11:25:31;;;;;;;13.88;9.20;;;;;;;17.92;100.00;101999.41;4962827;28;20031;-63
2022/03/22 11:27:59;;;;;;;12.95;7.20;;;;;;;18.05;100.00;101999.44;4956778;28;20097;-60
2022/03/22 11:30:26;;;;;;;12.13;5.88;;;;;;;18.09;100.00;101994.47;4950000;28;20039;-59
2022/03/22 11:35:51;;;;;;;16.67;7.45;;;;;;;18.22;100.00;101996.34;4952196;28;20152;-59